Time;durP1;ratioP1;P1;durP2;ratioP2;P2;SDS_P1;SDS_P2;PMS_P1;PMS_P2;Temp;Humidity;BMP_temperature;BMP_pressure;BME280_temperature;BME280_humidity;BME280_pressure;Samples;Min_cycle;Max_cycle;Signal;HPM_P1;HPM_P2
2022/05/31 00:00:31;;;;;;;2.88;2.10;;;8.70;99.90;;;;;;5052812;28;20458;-79
2022/05/31 00:02:57;;;;;;;2.63;2.08;;;8.70;99.90;;;;;;5054402;28;20107;-79
2022/05/31 00:05:24;;;;;;;2.80;2.03;;;8.70;99.90;;;;;;5057404;28;20076;-79
2022/05/31 00:07:49;;;;;;;1.90;1.80;;;8.60;99.90;;;;;;5092635;28;20098;-79
2022/05/31 00:10:16;;;;;;;2.20;2.00;;;8.60;99.90;;;;;;5054019;28;20088;-79
2022/05/31 00:12:42;;;;;;;2.58;2.03;;;8.60;99.90;;;;;;5054247;28;20069;-79
2022/05/31 00:15:11;;;;;;;5.97;2.15;;;8.60;99.90;;;;;;5053107;28;20409;-79
2022/05/31 00:17:37;;;;;;;2.10;1.90;;;8.50;99.90;;;;;;5053702;28;20427;-79
2022/05/31 00:20:05;;;;;;;5.00;2.20;;;8.50;99.90;;;;;;5055077;28;20435;-79
2022/05/31 00:22:34;;;;;;;3.78;1.98;;;8.40;99.90;;;;;;5064574;28;20098;-79
2022/05/31 00:24:59;;;;;;;2.45;1.92;;;8.40;99.90;;;;;;5094949;28;20044;-79
2022/05/31 00:27:26;;;;;;;9.75;2.25;;;8.30;99.90;;;;;;5080456;28;20366;-79
2022/05/31 00:29:53;;;;;;;2.03;1.73;;;8.40;99.90;;;;;;5052513;28;20049;-79
2022/05/31 00:32:30;;;;;;;4.57;1.90;;;8.30;99.90;;;;;;5054857;28;20080;-79
2022/05/31 00:34:58;;;;;;;1.60;1.50;;;8.30;99.90;;;;;;5054626;28;20392;-79
2022/05/31 00:37:24;;;;;;;3.50;1.40;;;8.30;99.90;;;;;;5054235;28;20045;-79
2022/05/31 00:39:50;;;;;;;2.45;1.55;;;8.30;99.90;;;;;;5054428;28;20072;-79
2022/05/31 00:42:19;;;;;;;2.33;1.77;;;8.30;99.90;;;;;;5052982;28;20095;-79
2022/05/31 00:44:45;;;;;;;2.10;1.90;;;8.30;99.90;;;;;;5053187;28;20076;-79
2022/05/31 00:47:32;;;;;;;2.33;1.60;;;8.20;99.90;;;;;;5054476;28;20045;-79
2022/05/31 00:50:07;;;;;;;1.98;1.70;;;8.30;99.90;;;;;;5052156;28;20048;-79
2022/05/31 00:52:35;;;;;;;;;;;8.30;99.90;;;;;;5060944;28;20029;-79
2022/05/31 00:55:01;;;;;;;2.60;1.65;;;8.20;99.90;;;;;;5054218;28;19921;-79
2022/05/31 00:57:27;;;;;;;2.38;1.58;;;8.20;99.90;;;;;;5053466;28;20660;-79
2022/05/31 00:59:57;;;;;;;2.33;1.77;;;8.20;99.90;;;;;;5053618;28;20055;-79
2022/05/31 01:02:24;;;;;;;1.67;1.58;;;8.30;99.90;;;;;;5054194;28;20052;-79
2022/05/31 01:04:57;;;;;;;1.70;1.60;;;8.20;99.90;;;;;;5053009;28;20076;-79
2022/05/31 01:07:23;;;;;;;2.97;2.42;;;8.20;99.90;;;;;;5053500;28;20092;-79
2022/05/31 01:09:49;;;;;;;2.30;2.10;;;8.20;99.90;;;;;;5053751;28;20084;-79
2022/05/31 01:12:16;;;;;;;2.42;1.60;;;8.20;99.90;;;;;;5060147;28;20053;-79
2022/05/31 01:14:42;;;;;;;2.28;2.10;;;8.20;99.90;;;;;;5073784;28;20048;-79
2022/05/31 01:17:16;;;;;;;2.72;1.85;;;8.20;99.90;;;;;;5061653;28;20399;-79
2022/05/31 01:20:00;;;;;;;2.78;2.20;;;8.20;99.90;;;;;;5051683;28;20060;-79
2022/05/31 01:22:36;;;;;;;2.28;2.00;;;8.30;99.90;;;;;;5052743;28;20043;-79
2022/05/31 01:25:23;;;;;;;2.42;2.00;;;8.20;99.90;;;;;;5050924;28;20049;-79
2022/05/31 01:28:10;;;;;;;2.95;2.28;;;8.20;99.90;;;;;;5052375;28;20048;-79
2022/05/31 01:30:55;;;;;;;2.55;2.00;;;8.20;99.90;;;;;;5053413;28;20539;-79
2022/05/31 01:33:36;;;;;;;3.33;2.50;;;8.20;99.90;;;;;;5063168;28;20045;-79
2022/05/31 01:36:09;;;;;;;3.05;2.13;;;8.20;99.90;;;;;;5073009;28;20127;-79
2022/05/31 01:39:02;;;;;;;5.60;2.70;;;8.20;99.90;;;;;;5072209;28;20089;-79
2022/05/31 01:41:52;;;;;;;2.20;1.92;;;8.10;99.90;;;;;;5070138;28;20056;-79
2022/05/31 01:44:20;;;;;;;2.55;2.35;;;8.20;99.90;;;;;;5053508;28;20049;-79
2022/05/31 01:46:49;;;;;;;2.13;2.00;;;8.10;99.90;;;;;;5051757;28;20048;-79
2022/05/31 01:49:16;;;;;;;2.75;2.38;;;8.10;99.90;;;;;;5063118;28;20054;-79
2022/05/31 01:51:43;;;;;;;7.03;2.45;;;8.10;99.90;;;;;;5068345;28;20052;-79
2022/05/31 01:54:10;;;;;;;2.63;2.03;;;8.10;99.90;;;;;;5051464;28;20045;-79
2022/05/31 01:56:36;;;;;;;2.47;2.25;;;8.10;99.90;;;;;;5052553;28;20053;-79
2022/05/31 01:59:04;;;;;;;2.42;2.22;;;8.10;99.90;;;;;;5052026;28;20125;-79
2022/05/31 02:01:31;;;;;;;2.10;1.90;;;8.10;99.90;;;;;;5051656;28;20384;-79
2022/05/31 02:03:59;;;;;;;2.72;2.00;;;8.00;99.90;;;;;;5089021;28;20105;-79
2022/05/31 02:06:31;;;;;;;2.20;1.95;;;8.00;99.90;;;;;;5092163;28;20048;-79
2022/05/31 02:08:57;;;;;;;1.88;1.77;;;8.10;99.90;;;;;;5090537;28;20513;-79
2022/05/31 02:11:24;;;;;;;2.03;1.80;;;8.00;99.90;;;;;;5082437;28;20412;-79
2022/05/31 02:13:50;;;;;;;1.77;1.67;;;8.00;99.90;;;;;;5071062;28;20141;-79
2022/05/31 02:16:16;;;;;;;3.63;1.70;;;8.00;99.90;;;;;;5067948;28;20045;-79
2022/05/31 02:21:35;;;;;;;4.97;2.40;;;8.00;99.90;;;;;;5055731;28;20091;-79
2022/05/31 02:24:13;;;;;;;2.45;2.25;;;8.00;99.90;;;;;;5093460;28;20044;-79
2022/05/31 02:26:41;;;;;;;4.43;2.55;;;8.00;99.90;;;;;;5077560;28;20051;-79
2022/05/31 02:29:09;;;;;;;3.35;2.10;;;8.00;99.90;;;;;;5050873;28;20057;-79
2022/05/31 02:31:36;;;;;;;2.85;2.42;;;8.00;99.90;;;;;;5052083;28;20049;-79
2022/05/31 02:34:02;;;;;;;2.95;2.60;;;8.10;99.90;;;;;;5051588;28;20052;-79
2022/05/31 02:36:28;;;;;;;3.97;2.80;;;8.00;99.90;;;;;;5062982;28;20490;-79
2022/05/31 02:38:55;;;;;;;2.60;2.35;;;8.10;99.90;;;;;;5065719;28;20049;-79
2022/05/31 02:41:21;;;;;;;3.17;2.88;;;8.10;99.90;;;;;;5055314;28;20064;-79
2022/05/31 02:43:47;;;;;;;6.82;3.30;;;8.10;99.90;;;;;;5056144;28;20029;-79
2022/05/31 02:46:13;;;;;;;3.10;2.65;;;8.10;99.90;;;;;;5068891;28;20498;-79
2022/05/31 02:48:39;;;;;;;4.50;2.80;;;8.10;99.90;;;;;;5071887;28;20380;-78
2022/05/31 02:51:05;;;;;;;4.07;2.97;;;8.10;99.90;;;;;;5072700;28;20048;-79
2022/05/31 02:53:31;;;;;;;3.22;2.88;;;8.20;99.90;;;;;;5084834;28;20052;-79
2022/05/31 02:55:57;;;;;;;4.13;2.80;;;8.20;99.90;;;;;;5093671;28;20048;-79
2022/05/31 02:58:25;;;;;;;3.15;2.95;;;8.20;99.90;;;;;;5055288;28;20385;-79
2022/05/31 03:00:51;;;;;;;3.20;2.90;;;8.20;99.90;;;;;;5056421;28;20128;-79
2022/05/31 03:03:17;;;;;;;6.07;2.92;;;8.20;99.90;;;;;;5055351;28;20559;-79
2022/05/31 03:05:43;;;;;;;4.68;3.30;;;8.20;99.90;;;;;;5056244;28;20033;-79
2022/05/31 03:08:08;;;;;;;4.32;3.22;;;8.30;99.90;;;;;;5082406;28;20060;-79
2022/05/31 03:10:39;;;;;;;3.42;2.80;;;8.30;99.90;;;;;;5088934;28;20123;-79
2022/05/31 03:13:05;;;;;;;5.35;3.13;;;8.30;99.90;;;;;;5055984;28;20534;-79
2022/05/31 03:15:34;;;;;;;2.63;2.40;;;8.30;99.90;;;;;;5055195;28;20052;-79
2022/05/31 03:18:13;;;;;;;3.17;2.88;;;8.30;99.90;;;;;;5055232;28;20163;-79
2022/05/31 03:20:47;;;;;;;4.80;3.47;;;8.30;99.90;;;;;;5057258;28;20773;-79
2022/05/31 03:23:30;;;;;;;3.30;2.80;;;8.30;99.90;;;;;;5090207;28;20048;-79
2022/05/31 03:26:00;;;;;;;3.67;3.08;;;8.30;99.90;;;;;;5074302;28;20088;-79
2022/05/31 03:28:26;;;;;;;4.25;3.20;;;8.30;99.90;;;;;;5055861;28;20041;-79
2022/05/31 03:30:52;;;;;;;4.10;3.30;;;8.30;99.90;;;;;;5054728;28;20103;-79
2022/05/31 03:33:18;;;;;;;3.55;3.10;;;8.30;99.90;;;;;;5053808;28;20049;-79
2022/05/31 03:35:44;;;;;;;5.00;3.20;;;8.30;99.90;;;;;;5055868;28;20033;-79
2022/05/31 03:38:10;;;;;;;5.53;3.17;;;8.40;99.90;;;;;;5089881;28;20047;-79
2022/05/31 03:43:20;;;;;;;5.28;3.60;;;8.40;99.90;;;;;;5055490;28;20503;-79
2022/05/31 03:45:46;;;;;;;3.50;3.20;;;8.40;99.90;;;;;;5054595;28;20045;-79
2022/05/31 03:48:12;;;;;;;3.45;3.05;;;8.40;99.90;;;;;;5054554;28;20045;-79
2022/05/31 03:50:39;;;;;;;6.85;3.60;;;8.40;99.90;;;;;;5055453;28;20558;-79
2022/05/31 03:53:10;;;;;;;5.68;3.80;;;8.50;99.90;;;;;;5091260;28;20055;-79
2022/05/31 03:55:39;;;;;;;7.10;3.72;;;8.50;99.90;;;;;;5063231;28;20037;-79
2022/05/31 03:58:06;;;;;;;5.47;3.33;;;8.50;99.90;;;;;;5055070;28;20495;-79
2022/05/31 04:00:32;;;;;;;5.30;3.60;;;8.50;99.90;;;;;;5054456;28;20098;-79
2022/05/31 04:02:58;;;;;;;8.15;3.08;;;8.50;99.90;;;;;;5070383;28;20045;-79
2022/05/31 04:05:24;;;;;;;3.80;3.30;;;8.50;99.90;;;;;;5053866;28;20060;-79
2022/05/31 04:07:51;;;;;;;3.78;3.35;;;8.50;99.90;;;;;;5091807;28;20042;-79
2022/05/31 04:10:17;;;;;;;3.63;3.22;;;8.50;99.90;;;;;;5070970;28;20099;-79
2022/05/31 04:12:43;;;;;;;4.00;3.17;;;8.60;99.90;;;;;;5085698;28;20037;-79
2022/05/31 04:15:09;;;;;;;8.98;3.70;;;8.60;99.90;;;;;;5074209;28;20048;-79
2022/05/31 04:17:35;;;;;;;4.35;3.53;;;8.60;99.90;;;;;;5066166;28;20051;-79
2022/05/31 04:20:01;;;;;;;3.70;3.10;;;8.60;99.90;;;;;;5053394;28;20049;-79
2022/05/31 04:22:26;;;;;;;4.10;3.70;;;8.60;99.90;;;;;;5054153;28;20033;-79
2022/05/31 04:24:54;;;;;;;5.18;3.55;;;8.70;99.90;;;;;;5054659;28;20045;-79
2022/05/31 04:27:21;;;;;;;3.58;3.22;;;8.70;99.90;;;;;;5056462;28;20495;-79
2022/05/31 04:29:47;;;;;;;5.70;3.30;;;8.70;99.90;;;;;;5084665;28;20106;-79
2022/05/31 04:32:15;;;;;;;4.40;3.47;;;8.70;99.90;;;;;;5072838;28;20419;-80
2022/05/31 04:34:42;;;;;;;3.92;3.30;;;8.70;99.90;;;;;;5054021;28;20522;-79
2022/05/31 04:37:09;;;;;;;5.60;4.07;;;8.80;99.90;;;;;;5054502;28;20068;-79
2022/05/31 04:39:35;;;;;;;4.90;3.13;;;8.80;99.90;;;;;;5054160;28;20492;-79
2022/05/31 04:42:01;;;;;;;4.05;3.65;;;8.80;99.90;;;;;;5072108;28;20036;-79
2022/05/31 04:44:27;;;;;;;3.97;3.42;;;8.80;99.90;;;;;;5093462;28;20047;-79
2022/05/31 04:46:53;;;;;;;5.30;3.30;;;8.90;99.90;;;;;;5052660;28;20044;-79
2022/05/31 04:49:20;;;;;;;4.05;3.03;;;8.90;99.90;;;;;;5090084;28;20545;-80
2022/05/31 04:51:46;;;;;;;6.32;3.28;;;8.90;99.90;;;;;;5084100;28;20051;-80
2022/05/31 04:54:12;;;;;;;7.15;3.80;;;8.90;99.90;;;;;;5110088;28;20044;-80
2022/05/31 04:56:37;;;;;;;4.43;3.63;;;9.00;99.90;;;;;;5079986;28;20117;-81
2022/05/31 04:59:04;;;;;;;3.97;3.10;;;9.10;99.90;;;;;;5091666;28;20487;-80
2022/05/31 05:01:30;;;;;;;3.17;2.65;;;9.10;99.90;;;;;;5087095;28;20040;-80
2022/05/31 05:03:56;;;;;;;4.30;3.30;;;9.10;99.90;;;;;;5072972;28;20051;-80
2022/05/31 05:06:22;;;;;;;5.05;3.50;;;9.20;99.90;;;;;;5061918;28;20041;-80
2022/05/31 05:08:49;;;;;;;3.67;3.08;;;9.20;99.90;;;;;;5052404;28;20560;-80
2022/05/31 05:11:20;;;;;;;4.70;3.50;;;9.30;99.90;;;;;;5053279;28;20063;-80
2022/05/31 05:13:46;;;;;;;3.95;3.35;;;9.30;99.90;;;;;;5052511;28;20048;-79
2022/05/31 05:16:13;;;;;;;3.33;3.03;;;9.40;99.90;;;;;;5066947;28;20044;-80
2022/05/31 05:18:40;;;;;;;4.88;3.17;;;9.40;99.90;;;;;;5051570;28;20052;-80
2022/05/31 05:21:09;;;;;;;4.55;3.47;;;9.40;99.90;;;;;;5060776;28;20109;-80
2022/05/31 05:23:35;;;;;;;4.80;3.30;;;9.50;99.90;;;;;;5072256;28;20052;-79
2022/05/31 05:26:01;;;;;;;5.32;3.50;;;9.50;99.90;;;;;;5060132;28;20060;-80
2022/05/31 05:31:19;;;;;;;;;;;9.60;99.90;;;;;;5053435;28;20079;-78
2022/05/31 05:33:46;;;;;;;4.53;2.97;;;9.60;99.90;;;;;;5055091;28;20382;-79
2022/05/31 05:36:12;;;;;;;4.50;3.10;;;9.70;99.90;;;;;;5065536;28;20041;-79
2022/05/31 05:38:38;;;;;;;4.78;3.30;;;9.70;99.90;;;;;;5052605;28;20049;-79
2022/05/31 05:41:04;;;;;;;4.28;3.25;;;9.70;99.90;;;;;;5053644;28;20136;-79
2022/05/31 05:43:30;;;;;;;6.82;3.80;;;9.80;99.90;;;;;;5064446;28;20093;-79
2022/05/31 05:45:55;;;;;;;5.38;2.90;;;9.80;99.90;;;;;;5062990;28;20045;-79
2022/05/31 05:48:21;;;;;;;6.32;3.38;;;9.90;99.90;;;;;;5052397;28;20037;-80
2022/05/31 05:50:48;;;;;;;3.42;3.10;;;9.90;99.90;;;;;;5052115;28;20091;-79
2022/05/31 05:53:13;;;;;;;5.38;3.22;;;10.00;99.90;;;;;;5066396;28;20057;-79
2022/05/31 05:55:40;;;;;;;3.97;3.10;;;10.00;99.90;;;;;;5067383;28;20049;-79
2022/05/31 05:58:09;;;;;;;10.20;4.07;;;10.10;99.90;;;;;;5053341;28;20037;-78
2022/05/31 06:00:48;;;;;;;3.70;3.30;;;10.20;99.90;;;;;;5051494;28;20451;-78
2022/05/31 06:03:25;;;;;;;5.57;3.50;;;10.20;99.90;;;;;;5053517;28;20132;-78
2022/05/31 06:05:52;;;;;;;4.93;3.10;;;10.30;99.90;;;;;;5051220;28;20132;-79
2022/05/31 06:08:25;;;;;;;5.18;3.63;;;10.40;99.90;;;;;;5071779;28;20080;-78
2022/05/31 06:11:14;;;;;;;9.63;3.30;;;10.40;99.90;;;;;;5075474;28;20048;-78
2022/05/31 06:14:02;;;;;;;6.03;3.15;;;10.50;99.90;;;;;;5076015;28;20120;-78
2022/05/31 06:16:33;;;;;;;5.63;3.17;;;10.50;99.90;;;;;;5076146;28;20139;-79
2022/05/31 06:19:05;;;;;;;4.10;3.38;;;10.60;99.90;;;;;;5076870;28;20052;-78
2022/05/31 06:21:31;;;;;;;7.65;3.30;;;10.70;99.90;;;;;;5074780;28;20058;-79
2022/05/31 06:23:58;;;;;;;5.65;3.33;;;10.70;99.90;;;;;;5077051;28;20079;-79
2022/05/31 06:26:24;;;;;;;7.38;4.10;;;10.80;99.90;;;;;;5076646;28;20127;-78
2022/05/31 06:28:50;;;;;;;2.92;2.72;;;10.80;99.90;;;;;;5078369;28;20445;-78
2022/05/31 06:31:16;;;;;;;4.38;2.97;;;10.90;99.90;;;;;;5078223;28;20447;-78
2022/05/31 06:33:41;;;;;;;5.43;2.92;;;11.00;99.90;;;;;;5076343;28;20080;-79
2022/05/31 06:36:07;;;;;;;5.57;3.90;;;11.10;99.90;;;;;;5076147;28;20055;-79
2022/05/31 06:38:34;;;;;;;4.68;2.70;;;11.10;99.90;;;;;;5076332;28;20048;-79
2022/05/31 06:41:00;;;;;;;5.15;3.13;;;11.20;99.90;;;;;;5074325;28;20051;-79
2022/05/31 06:43:35;;;;;;;6.07;3.45;;;11.20;99.90;;;;;;5081251;28;20086;-78
2022/05/31 06:46:06;;;;;;;12.40;3.75;;;11.30;99.90;;;;;;5091152;28;20040;-79
2022/05/31 06:48:32;;;;;;;5.25;2.83;;;11.40;99.90;;;;;;5075427;28;20110;-79
2022/05/31 06:51:02;;;;;;;3.97;3.03;;;11.50;99.90;;;;;;5059546;28;20496;-78
2022/05/31 06:58:56;;;;;;;7.20;3.60;;;11.70;99.90;;;;;;5071381;28;20059;-78
2022/05/31 07:01:30;;;;;;;4.03;3.03;;;11.80;99.90;;;;;;5063957;28;20111;-79
2022/05/31 07:03:57;;;;;;;4.23;3.33;;;11.90;99.90;;;;;;5073078;28;20071;-78
2022/05/31 07:06:22;;;;;;;5.78;3.03;;;12.10;99.90;;;;;;5076820;28;20119;-79
2022/05/31 07:08:48;;;;;;;8.07;3.22;;;12.20;99.90;;;;;;5072824;28;20139;-79
2022/05/31 07:11:14;;;;;;;7.28;3.10;;;12.30;99.90;;;;;;5053890;28;20087;-79
2022/05/31 07:13:39;;;;;;;3.40;2.78;;;12.50;99.90;;;;;;5068339;28;20040;-79
2022/05/31 07:16:05;;;;;;;4.93;3.30;;;12.70;99.90;;;;;;5090581;28;20452;-79
2022/05/31 07:18:31;;;;;;;4.03;2.80;;;12.80;99.90;;;;;;5077403;28;20115;-79
2022/05/31 07:20:57;;;;;;;5.35;2.60;;;13.00;99.90;;;;;;5076115;28;20604;-79
2022/05/31 07:23:23;;;;;;;4.68;2.80;;;13.10;99.90;;;;;;5079863;28;20066;-79
2022/05/31 07:25:48;;;;;;;4.65;2.95;;;13.20;99.90;;;;;;5080077;28;20476;-79
2022/05/31 07:28:14;;;;;;;8.65;3.08;;;13.30;99.90;;;;;;5069737;28;20102;-79
2022/05/31 07:30:40;;;;;;;5.22;3.33;;;13.40;99.90;;;;;;5075053;28;20084;-79
2022/05/31 07:33:06;;;;;;;4.85;2.80;;;13.50;99.90;;;;;;5075852;28;20472;-79
2022/05/31 07:35:32;;;;;;;3.10;2.55;;;13.60;99.90;;;;;;5091404;28;20047;-79
2022/05/31 07:37:57;;;;;;;5.53;3.08;;;13.70;99.90;;;;;;5095023;28;20040;-79
2022/05/31 07:40:23;;;;;;;3.85;2.30;;;13.70;99.90;;;;;;5094389;28;20058;-78
2022/05/31 07:42:49;;;;;;;7.40;2.55;;;13.80;99.90;;;;;;5095756;28;20040;-79
2022/05/31 07:45:15;;;;;;;2.40;2.00;;;13.80;99.90;;;;;;5095007;28;20036;-78
2022/05/31 07:47:40;;;;;;;4.03;2.70;;;13.80;99.90;;;;;;5095770;28;20047;-79
2022/05/31 07:50:06;;;;;;;6.95;2.80;;;13.80;99.90;;;;;;5095054;28;20103;-78
2022/05/31 07:52:33;;;;;;;3.45;2.58;;;13.80;99.90;;;;;;5074580;28;20127;-79
2022/05/31 07:54:59;;;;;;;3.35;2.80;;;13.90;99.90;;;;;;5075431;28;20044;-79
2022/05/31 08:00:10;;;;;;;3.30;2.60;;;14.10;99.90;;;;;;5073095;28;20181;-79
2022/05/31 08:02:35;;;;;;;5.18;2.65;;;14.30;99.90;;;;;;5074092;28;20127;-79
2022/05/31 08:05:01;;;;;;;6.38;2.08;;;14.40;99.90;;;;;;5076026;28;20499;-79
2022/05/31 08:07:27;;;;;;;5.50;2.75;;;13.90;99.90;;;;;;5070594;28;20041;-79
2022/05/31 08:09:53;;;;;;;4.53;2.15;;;14.70;99.90;;;;;;5073420;28;20510;-79
2022/05/31 08:12:18;;;;;;;3.85;2.10;;;14.70;99.90;;;;;;5074843;28;20373;-79
2022/05/31 08:14:44;;;;;;;6.65;2.15;;;14.80;99.90;;;;;;5074034;28;20149;-79
2022/05/31 08:17:10;;;;;;;6.97;2.15;;;14.90;99.90;;;;;;5074961;28;20117;-79
2022/05/31 08:19:37;;;;;;;3.40;1.85;;;15.00;99.90;;;;;;5073929;28;20404;-78
2022/05/31 08:22:03;;;;;;;5.53;2.20;;;15.00;99.90;;;;;;5089711;28;20163;-79
2022/05/31 08:24:29;;;;;;;4.95;2.10;;;15.10;99.90;;;;;;5094990;28;20360;-79
2022/05/31 08:26:55;;;;;;;5.13;2.28;;;15.10;99.90;;;;;;5094174;28;20403;-80
2022/05/31 08:29:23;;;;;;;4.30;2.22;;;15.10;99.90;;;;;;5093458;28;20044;-79
2022/05/31 08:31:49;;;;;;;8.07;2.42;;;15.10;99.90;;;;;;5094953;28;20123;-78
2022/05/31 08:34:14;;;;;;;5.07;2.30;;;15.20;99.90;;;;;;5093576;28;20111;-79
2022/05/31 08:36:40;;;;;;;8.70;2.35;;;15.30;99.90;;;;;;5078396;28;20050;-78
2022/05/31 08:39:06;;;;;;;6.13;2.55;;;15.40;99.90;;;;;;5073132;28;20044;-79
2022/05/31 08:41:42;;;;;;;4.93;2.00;;;15.40;99.90;;;;;;5073675;28;20064;-79
2022/05/31 08:44:16;;;;;;;3.58;2.30;;;15.40;99.90;;;;;;5073239;28;20458;-79
2022/05/31 08:47:02;;;;;;;8.80;3.37;;;15.50;99.90;;;;;;5073433;28;20113;-78
2022/05/31 08:52:43;;;;;;;9.40;2.90;;;15.60;99.90;;;;;;5073420;28;20514;-79
2022/05/31 08:58:13;;;;;;;4.30;3.03;;;15.70;99.90;;;;;;5074275;28;20396;-79
2022/05/31 09:00:42;;;;;;;9.23;3.25;;;15.70;99.90;;;;;;5074202;28;20044;-80
2022/05/31 09:03:23;;;;;;;14.02;3.58;;;15.80;99.90;;;;;;5073380;28;20040;-78
2022/05/31 09:06:01;;;;;;;4.93;3.42;;;15.80;99.90;;;;;;5076595;28;20048;-79
2022/05/31 09:08:36;;;;;;;11.00;4.25;;;15.80;99.90;;;;;;5094082;28;20056;-79
2022/05/31 09:11:21;;;;;;;6.10;3.60;;;15.80;99.90;;;;;;5093417;28;20464;-79
2022/05/31 09:14:02;;;;;;;12.20;4.93;;;15.90;99.90;;;;;;5094044;28;20048;-79
2022/05/31 09:16:37;;;;;;;6.50;3.65;;;16.00;99.90;;;;;;5093190;28;20067;-78
2022/05/31 09:19:09;;;;;;;8.10;3.45;;;16.00;99.90;;;;;;5093870;28;20578;-79
2022/05/31 09:21:41;;;;;;;6.88;3.60;;;16.00;99.90;;;;;;5081492;28;20147;-79
2022/05/31 09:24:19;;;;;;;9.57;3.95;;;16.00;99.90;;;;;;5073097;28;20082;-79
2022/05/31 09:27:03;;;;;;;7.45;4.25;;;15.90;99.90;;;;;;5073796;28;20047;-79
2022/05/31 09:29:55;;;;;;;10.50;4.32;;;15.90;99.90;;;;;;5073573;28;20509;-79
2022/05/31 09:32:40;;;;;;;6.95;3.83;;;16.00;99.90;;;;;;5073846;28;20057;-79
2022/05/31 09:35:23;;;;;;;8.95;4.15;;;16.10;99.90;;;;;;5074305;28;20036;-79
2022/05/31 09:38:08;;;;;;;8.98;3.63;;;16.20;99.90;;;;;;5093122;28;20101;-79
2022/05/31 09:40:52;;;;;;;8.68;4.10;;;16.30;99.90;;;;;;5109433;28;20127;-79
2022/05/31 09:43:25;;;;;;;7.45;3.83;;;16.40;99.90;;;;;;5092530;28;20056;-79
2022/05/31 09:46:03;;;;;;;7.95;3.90;;;16.50;99.90;;;;;;5091887;28;20567;-79
2022/05/31 09:48:30;;;;;;;7.03;4.15;;;16.70;99.90;;;;;;5093765;28;20476;-78
2022/05/31 09:51:16;;;;;;;6.07;3.58;;;16.70;99.90;;;;;;5082594;28;20064;-79
2022/05/31 09:59:14;;;;;;;10.98;3.70;;;16.90;99.90;;;;;;5073871;28;20686;-78
2022/05/31 10:01:45;;;;;;;7.75;4.10;;;16.90;99.90;;;;;;5093643;28;20068;-78
2022/05/31 10:04:19;;;;;;;7.93;4.03;;;16.80;99.90;;;;;;5093340;28;20518;-80
2022/05/31 10:07:01;;;;;;;9.00;4.28;;;16.70;99.90;;;;;;5090656;28;20047;-79
2022/05/31 10:09:34;;;;;;;9.73;4.15;;;16.60;99.90;;;;;;5053000;28;20463;-79
2022/05/31 10:12:26;;;;;;;6.45;3.22;;;16.50;99.90;;;;;;5068238;28;20467;-78
2022/05/31 10:14:54;;;;;;;8.45;3.78;;;16.60;99.90;;;;;;5052169;28;20053;-79
2022/05/31 10:17:41;;;;;;;14.20;4.18;;;16.60;99.90;;;;;;5053235;28;20051;-80
2022/05/31 10:20:12;;;;;;;8.40;4.20;;;16.80;99.90;;;;;;5052236;28;20044;-79
2022/05/31 10:22:40;;;;;;;9.20;3.92;;;16.80;99.90;;;;;;5080925;28;20048;-79
2022/05/31 10:25:26;;;;;;;9.05;3.85;;;16.80;99.90;;;;;;5072943;28;20045;-78
2022/05/31 10:28:04;;;;;;;9.48;4.20;;;16.70;99.90;;;;;;5072243;28;20487;-79
2022/05/31 10:30:32;;;;;;;8.55;3.67;;;16.60;99.90;;;;;;5071688;28;20052;-79
2022/05/31 10:33:08;;;;;;;5.68;3.63;;;16.50;99.90;;;;;;5072079;28;20048;-79
2022/05/31 10:35:37;;;;;;;4.95;4.00;;;16.40;99.90;;;;;;5071827;28;20110;-78
2022/05/31 10:38:26;;;;;;;7.50;4.35;;;16.30;99.90;;;;;;5072845;28;20041;-79
2022/05/31 10:40:57;;;;;;;9.15;4.50;;;16.20;99.90;;;;;;5070601;28;20044;-79
2022/05/31 10:43:50;;;;;;;6.95;4.28;;;16.10;99.90;;;;;;5074116;28;20488;-79
2022/05/31 10:46:29;;;;;;;10.55;4.95;;;16.10;99.90;;;;;;5072967;28;20123;-79
2022/05/31 10:49:16;;;;;;;13.48;4.82;;;16.00;99.90;;;;;;5072210;28;20403;-80
2022/05/31 10:51:42;;;;;;;9.05;4.53;;;15.90;99.90;;;;;;5071645;28;20479;-79
2022/05/31 10:54:33;;;;;;;7.18;4.28;;;15.90;99.90;;;;;;5072732;28;20052;-79
2022/05/31 10:57:19;;;;;;;6.55;3.85;;;15.90;99.90;;;;;;5082676;28;20437;-78
2022/05/31 11:00:21;;;;;;;8.00;4.47;;;15.80;99.90;;;;;;5056576;28;20051;-79
2022/05/31 11:03:03;;;;;;;8.70;4.32;;;15.80;99.90;;;;;;5053795;28;20515;-79
2022/05/31 11:05:36;;;;;;;7.10;3.45;;;15.80;99.90;;;;;;5056806;28;20497;-79
2022/05/31 11:11:32;;;;;;;7.05;3.35;;;15.90;99.90;;;;;;5071556;28;20132;-79
2022/05/31 11:14:16;;;;;;;7.28;3.60;;;15.90;99.90;;;;;;5092862;28;20040;-79
2022/05/31 11:16:50;;;;;;;13.38;4.10;;;16.00;99.90;;;;;;5094220;28;20044;-79
2022/05/31 11:19:24;;;;;;;;;;;16.00;99.90;;;;;;5095454;28;20040;-79
2022/05/31 11:22:02;;;;;;;7.50;3.75;;;16.10;99.90;;;;;;5094879;28;20333;-79
2022/05/31 11:24:52;;;;;;;8.05;3.90;;;16.20;99.90;;;;;;5094027;28;20506;-79
2022/05/31 11:27:34;;;;;;;7.68;4.80;;;16.30;99.90;;;;;;5095350;28;20040;-79
2022/05/31 11:30:26;;;;;;;13.48;4.35;;;16.30;99.90;;;;;;5082236;28;20044;-79
2022/05/31 11:33:23;;;;;;;10.93;4.10;;;16.30;99.90;;;;;;5074503;28;20110;-79
2022/05/31 11:35:48;;;;;;;6.90;4.13;;;16.40;99.90;;;;;;5075844;28;20377;-79
2022/05/31 11:38:21;;;;;;;6.05;3.65;;;16.40;99.90;;;;;;5074737;28;20048;-79
2022/05/31 11:41:28;;;;;;;7.80;4.25;;;16.40;99.90;;;;;;5075677;28;20041;-79
2022/05/31 11:44:17;;;;;;;8.38;4.70;;;16.50;99.90;;;;;;5079351;28;20101;-78
2022/05/31 11:46:48;;;;;;;6.05;4.30;;;16.50;99.90;;;;;;5095272;28;20051;-79
2022/05/31 11:49:31;;;;;;;9.90;4.45;;;16.50;99.90;;;;;;5095417;28;20048;-78
2022/05/31 11:52:09;;;;;;;6.75;4.43;;;16.60;99.90;;;;;;5093508;28;20127;-79
2022/05/31 11:57:59;;;;;;;6.43;3.88;;;16.60;99.90;;;;;;5093346;28;20613;-79
2022/05/31 12:00:32;;;;;;;6.78;3.58;;;16.70;99.90;;;;;;5091398;28;20048;-79
2022/05/31 12:03:23;;;;;;;5.18;3.92;;;16.70;99.90;;;;;;5075346;28;20083;-79
2022/05/31 12:06:10;;;;;;;10.77;3.40;;;16.70;99.90;;;;;;5074508;28;20080;-79
2022/05/31 12:08:46;;;;;;;7.20;3.75;;;16.70;99.90;;;;;;5074165;28;20067;-79
2022/05/31 12:11:24;;;;;;;13.32;4.03;;;16.70;99.90;;;;;;5074968;28;20040;-79
2022/05/31 12:13:52;;;;;;;7.70;3.45;;;16.70;99.90;;;;;;5074092;28;20119;-79
2022/05/31 12:16:20;;;;;;;7.38;3.95;;;16.70;99.90;;;;;;5086520;28;20047;-79
2022/05/31 12:18:49;;;;;;;5.20;2.95;;;16.60;99.90;;;;;;5093253;28;20087;-79
2022/05/31 12:21:29;;;;;;;7.47;3.20;;;16.60;99.90;;;;;;5095174;28;20129;-79
2022/05/31 12:24:04;;;;;;;6.85;3.30;;;16.60;99.90;;;;;;5094549;28;20085;-79
2022/05/31 12:26:45;;;;;;;4.63;2.88;;;16.50;99.90;;;;;;5092578;28;20036;-79
2022/05/31 12:29:41;;;;;;;4.70;2.95;;;16.50;99.90;;;;;;5094609;28;20380;-78
2022/05/31 12:32:41;;;;;;;10.10;3.88;;;16.40;99.90;;;;;;5095034;28;20059;-79
2022/05/31 12:35:30;;;;;;;6.25;3.03;;;16.30;99.90;;;;;;5094902;28;20044;-79
2022/05/31 12:38:02;;;;;;;7.43;3.30;;;16.30;99.90;;;;;;5084123;28;20063;-79
2022/05/31 12:40:34;;;;;;;5.38;3.40;;;16.20;99.90;;;;;;5092902;28;20127;-79
2022/05/31 12:43:05;;;;;;;5.82;2.70;;;16.20;99.90;;;;;;5087624;28;20037;-79
2022/05/31 12:45:34;;;;;;;6.20;3.00;;;16.10;99.90;;;;;;5074330;28;20042;-79
2022/05/31 12:48:25;;;;;;;6.78;3.60;;;16.10;99.90;;;;;;5073629;28;20368;-79
2022/05/31 12:51:08;;;;;;;6.88;3.45;;;16.00;99.90;;;;;;5071006;28;20053;-79
2022/05/31 12:53:37;;;;;;;7.20;3.00;;;15.90;99.90;;;;;;5074310;28;20040;-79
2022/05/31 12:56:06;;;;;;;6.05;3.40;;;15.90;99.90;;;;;;5072028;28;20052;-79
2022/05/31 12:58:43;;;;;;;6.38;3.83;;;15.80;99.90;;;;;;5086947;28;20032;-79
2022/05/31 13:01:13;;;;;;;8.80;3.92;;;15.80;99.90;;;;;;5092542;28;20048;-79
2022/05/31 13:03:51;;;;;;;10.43;3.90;;;15.70;99.90;;;;;;5094319;28;20381;-79
2022/05/31 13:06:39;;;;;;;5.07;3.75;;;15.70;99.90;;;;;;5092931;28;20098;-79
2022/05/31 13:09:12;;;;;;;7.32;3.72;;;15.60;99.90;;;;;;5093010;28;20106;-79
2022/05/31 13:20:46;;;;;;;7.10;3.45;;;15.50;99.90;;;;;;5053804;28;20094;-79
2022/05/31 13:23:19;;;;;;;7.05;4.43;;;15.50;99.90;;;;;;5068647;28;20049;-79
2022/05/31 13:25:46;;;;;;;5.90;4.10;;;15.50;99.90;;;;;;5053948;28;20049;-79
2022/05/31 13:28:32;;;;;;;8.43;4.78;;;15.50;99.90;;;;;;5068514;28;20044;-79
2022/05/31 13:31:20;;;;;;;10.85;4.97;;;15.50;99.90;;;;;;5071582;28;20052;-79
2022/05/31 13:33:58;;;;;;;7.32;4.78;;;15.50;99.90;;;;;;5072532;28;20040;-79
2022/05/31 13:36:27;;;;;;;22.25;5.15;;;15.60;99.90;;;;;;5072911;28;20055;-79
2022/05/31 13:38:58;;;;;;;7.25;3.50;;;15.60;99.90;;;;;;5071729;28;20047;-79
2022/05/31 13:41:25;;;;;;;7.65;3.78;;;15.70;99.90;;;;;;5073441;28;20095;-79
2022/05/31 13:43:57;;;;;;;5.72;3.17;;;15.70;99.90;;;;;;5076049;28;20052;-79
2022/05/31 13:46:50;;;;;;;7.32;3.67;;;15.80;99.90;;;;;;5073019;28;20438;-79
2022/05/31 13:49:26;;;;;;;6.25;3.78;;;15.80;99.90;;;;;;5071645;28;20063;-79
2022/05/31 13:51:55;;;;;;;7.63;3.80;;;15.90;99.90;;;;;;5075124;28;20112;-78
2022/05/31 13:54:26;;;;;;;11.18;4.95;;;15.90;99.90;;;;;;5082727;28;20044;-79
2022/05/31 13:56:57;;;;;;;15.48;4.75;;;15.90;99.90;;;;;;5074289;28;20037;-79